sensor_id;sensor_type;location;lat;lon;timestamp;temperature;humidity
10314;DHT22;5202;49.138;10.090;2023-04-03T00:01:35;4.00;98.80
10314;DHT22;5202;49.138;10.090;2023-04-03T00:04:06;3.90;98.80
10314;DHT22;5202;49.138;10.090;2023-04-03T00:07:05;4.00;99.40
10314;DHT22;5202;49.138;10.090;2023-04-03T00:09:34;3.90;99.40
10314;DHT22;5202;49.138;10.090;2023-04-03T00:12:02;3.90;99.20
10314;DHT22;5202;49.138;10.090;2023-04-03T00:14:32;4.00;99.40
10314;DHT22;5202;49.138;10.090;2023-04-03T00:17:02;4.00;99.00
10314;DHT22;5202;49.138;10.090;2023-04-03T00:19:31;3.90;98.40
10314;DHT22;5202;49.138;10.090;2023-04-03T00:21:59;3.90;98.00
10314;DHT22;5202;49.138;10.090;2023-04-03T00:24:28;3.90;98.60
10314;DHT22;5202;49.138;10.090;2023-04-03T00:26:56;3.90;98.50
10314;DHT22;5202;49.138;10.090;2023-04-03T00:29:24;3.90;98.70
10314;DHT22;5202;49.138;10.090;2023-04-03T00:31:54;3.90;99.10
10314;DHT22;5202;49.138;10.090;2023-04-03T00:34:23;4.00;99.40
10314;DHT22;5202;49.138;10.090;2023-04-03T00:36:52;3.90;98.70
10314;DHT22;5202;49.138;10.090;2023-04-03T00:39:20;3.90;98.90
10314;DHT22;5202;49.138;10.090;2023-04-03T00:41:49;3.80;98.60
10314;DHT22;5202;49.138;10.090;2023-04-03T00:44:20;3.70;98.10
10314;DHT22;5202;49.138;10.090;2023-04-03T00:46:49;3.70;98.10
10314;DHT22;5202;49.138;10.090;2023-04-03T00:49:19;3.70;98.50
10314;DHT22;5202;49.138;10.090;2023-04-03T00:51:48;3.70;98.80
10314;DHT22;5202;49.138;10.090;2023-04-03T00:54:18;3.60;98.50
10314;DHT22;5202;49.138;10.090;2023-04-03T00:56:46;3.60;98.10
10314;DHT22;5202;49.138;10.090;2023-04-03T00:59:19;3.50;98.20
10314;DHT22;5202;49.138;10.090;2023-04-03T01:01:52;3.50;98.30
10314;DHT22;5202;49.138;10.090;2023-04-03T01:04:30;3.50;97.60
10314;DHT22;5202;49.138;10.090;2023-04-03T01:07:02;3.50;98.00
10314;DHT22;5202;49.138;10.090;2023-04-03T01:09:33;3.60;98.60
10314;DHT22;5202;49.138;10.090;2023-04-03T01:12:13;3.60;98.60
10314;DHT22;5202;49.138;10.090;2023-04-03T01:14:43;3.70;97.40
10314;DHT22;5202;49.138;10.090;2023-04-03T01:17:31;3.60;97.40
10314;DHT22;5202;49.138;10.090;2023-04-03T01:20:43;3.60;97.40
10314;DHT22;5202;49.138;10.090;2023-04-03T01:23:37;3.70;97.30
10314;DHT22;5202;49.138;10.090;2023-04-03T01:26:11;3.60;97.40
10314;DHT22;5202;49.138;10.090;2023-04-03T01:28:40;3.60;97.20
10314;DHT22;5202;49.138;10.090;2023-04-03T01:31:14;3.60;97.70
10314;DHT22;5202;49.138;10.090;2023-04-03T01:33:49;3.70;97.20
10314;DHT22;5202;49.138;10.090;2023-04-03T01:36:20;3.70;97.00
10314;DHT22;5202;49.138;10.090;2023-04-03T01:38:52;3.70;96.80
10314;DHT22;5202;49.138;10.090;2023-04-03T01:41:21;3.70;97.10
10314;DHT22;5202;49.138;10.090;2023-04-03T01:43:53;3.60;97.30
10314;DHT22;5202;49.138;10.090;2023-04-03T01:46:21;3.70;97.40
10314;DHT22;5202;49.138;10.090;2023-04-03T01:48:51;3.70;97.60
10314;DHT22;5202;49.138;10.090;2023-04-03T01:51:19;3.60;97.80
10314;DHT22;5202;49.138;10.090;2023-04-03T01:53:48;3.60;98.20
10314;DHT22;5202;49.138;10.090;2023-04-03T01:56:18;3.60;98.20
10314;DHT22;5202;49.138;10.090;2023-04-03T01:58:47;3.70;98.10
10314;DHT22;5202;49.138;10.090;2023-04-03T02:01:16;3.70;98.00
10314;DHT22;5202;49.138;10.090;2023-04-03T02:04:11;3.70;98.40
10314;DHT22;5202;49.138;10.090;2023-04-03T02:06:43;3.60;97.90
10314;DHT22;5202;49.138;10.090;2023-04-03T02:09:12;3.60;98.30
10314;DHT22;5202;49.138;10.090;2023-04-03T02:11:40;3.60;98.00
10314;DHT22;5202;49.138;10.090;2023-04-03T02:14:09;3.50;98.20
10314;DHT22;5202;49.138;10.090;2023-04-03T02:16:38;3.50;98.20
10314;DHT22;5202;49.138;10.090;2023-04-03T02:19:06;3.40;97.50
10314;DHT22;5202;49.138;10.090;2023-04-03T02:21:36;3.30;96.90
10314;DHT22;5202;49.138;10.090;2023-04-03T02:24:04;3.30;97.10
10314;DHT22;5202;49.138;10.090;2023-04-03T02:26:33;3.30;97.50
10314;DHT22;5202;49.138;10.090;2023-04-03T02:29:04;3.30;97.40
10314;DHT22;5202;49.138;10.090;2023-04-03T02:31:34;3.30;97.80
10314;DHT22;5202;49.138;10.090;2023-04-03T02:34:04;3.40;98.20
10314;DHT22;5202;49.138;10.090;2023-04-03T02:36:35;3.40;98.70
10314;DHT22;5202;49.138;10.090;2023-04-03T02:39:07;3.40;98.60
10314;DHT22;5202;49.138;10.090;2023-04-03T02:41:35;3.40;98.50
10314;DHT22;5202;49.138;10.090;2023-04-03T02:44:10;3.40;98.30
10314;DHT22;5202;49.138;10.090;2023-04-03T02:46:39;3.50;98.20
10314;DHT22;5202;49.138;10.090;2023-04-03T02:49:07;3.40;97.60
10314;DHT22;5202;49.138;10.090;2023-04-03T02:51:37;3.50;97.80
10314;DHT22;5202;49.138;10.090;2023-04-03T02:54:06;3.50;97.70
10314;DHT22;5202;49.138;10.090;2023-04-03T02:56:37;3.50;97.90
10314;DHT22;5202;49.138;10.090;2023-04-03T02:59:06;3.50;97.40
10314;DHT22;5202;49.138;10.090;2023-04-03T03:01:36;3.40;97.30
10314;DHT22;5202;49.138;10.090;2023-04-03T03:04:05;3.40;97.10
10314;DHT22;5202;49.138;10.090;2023-04-03T03:06:33;3.40;97.10
10314;DHT22;5202;49.138;10.090;2023-04-03T03:09:04;3.40;97.10
10314;DHT22;5202;49.138;10.090;2023-04-03T03:11:33;3.30;97.40
10314;DHT22;5202;49.138;10.090;2023-04-03T03:14:02;3.30;97.30
10314;DHT22;5202;49.138;10.090;2023-04-03T03:16:30;3.30;97.20
10314;DHT22;5202;49.138;10.090;2023-04-03T03:18:58;3.40;97.60
10314;DHT22;5202;49.138;10.090;2023-04-03T03:21:27;3.30;97.60
10314;DHT22;5202;49.138;10.090;2023-04-03T03:23:55;3.30;97.50
10314;DHT22;5202;49.138;10.090;2023-04-03T03:26:25;3.20;97.80
10314;DHT22;5202;49.138;10.090;2023-04-03T03:28:54;3.20;97.80
10314;DHT22;5202;49.138;10.090;2023-04-03T03:31:22;3.30;97.90
10314;DHT22;5202;49.138;10.090;2023-04-03T03:33:51;3.30;98.00
10314;DHT22;5202;49.138;10.090;2023-04-03T03:36:19;3.20;97.40
10314;DHT22;5202;49.138;10.090;2023-04-03T03:38:48;3.20;97.40
10314;DHT22;5202;49.138;10.090;2023-04-03T03:41:16;3.10;97.50
10314;DHT22;5202;49.138;10.090;2023-04-03T03:43:46;3.10;98.10
10314;DHT22;5202;49.138;10.090;2023-04-03T03:46:15;3.00;98.10
10314;DHT22;5202;49.138;10.090;2023-04-03T03:48:44;3.00;98.20
10314;DHT22;5202;49.138;10.090;2023-04-03T03:51:12;3.00;98.20
10314;DHT22;5202;49.138;10.090;2023-04-03T03:53:40;3.10;98.30
10314;DHT22;5202;49.138;10.090;2023-04-03T03:56:13;3.10;97.90
10314;DHT22;5202;49.138;10.090;2023-04-03T03:58:43;3.20;98.00
10314;DHT22;5202;49.138;10.090;2023-04-03T04:01:13;3.10;97.60
10314;DHT22;5202;49.138;10.090;2023-04-03T04:03:47;3.10;98.20
10314;DHT22;5202;49.138;10.090;2023-04-03T04:06:20;3.20;97.90
10314;DHT22;5202;49.138;10.090;2023-04-03T04:08:49;3.00;98.00
10314;DHT22;5202;49.138;10.090;2023-04-03T04:11:17;3.00;98.40
10314;DHT22;5202;49.138;10.090;2023-04-03T04:13:46;2.90;98.60
10314;DHT22;5202;49.138;10.090;2023-04-03T04:16:19;2.90;98.60
10314;DHT22;5202;49.138;10.090;2023-04-03T04:18:48;2.90;98.80
10314;DHT22;5202;49.138;10.090;2023-04-03T04:21:17;2.90;98.70
10314;DHT22;5202;49.138;10.090;2023-04-03T04:23:46;2.90;98.70
10314;DHT22;5202;49.138;10.090;2023-04-03T04:26:14;2.90;99.00
10314;DHT22;5202;49.138;10.090;2023-04-03T04:28:43;2.80;98.80
10314;DHT22;5202;49.138;10.090;2023-04-03T04:31:11;2.80;99.10
10314;DHT22;5202;49.138;10.090;2023-04-03T04:33:41;2.80;98.90
10314;DHT22;5202;49.138;10.090;2023-04-03T04:36:12;2.70;99.40
10314;DHT22;5202;49.138;10.090;2023-04-03T04:38:44;2.60;99.90
10314;DHT22;5202;49.138;10.090;2023-04-03T04:41:13;2.50;99.90
10314;DHT22;5202;49.138;10.090;2023-04-03T04:43:42;2.50;99.90
10314;DHT22;5202;49.138;10.090;2023-04-03T04:46:10;2.50;99.90
10314;DHT22;5202;49.138;10.090;2023-04-03T04:48:46;2.50;99.90
10314;DHT22;5202;49.138;10.090;2023-04-03T04:51:17;2.50;99.90
10314;DHT22;5202;49.138;10.090;2023-04-03T04:53:46;2.60;99.90
10314;DHT22;5202;49.138;10.090;2023-04-03T04:56:17;2.60;99.90
10314;DHT22;5202;49.138;10.090;2023-04-03T04:58:46;2.50;99.90
10314;DHT22;5202;49.138;10.090;2023-04-03T05:01:18;2.50;99.90
10314;DHT22;5202;49.138;10.090;2023-04-03T05:03:55;2.50;99.90
10314;DHT22;5202;49.138;10.090;2023-04-03T05:06:24;2.40;99.90
10314;DHT22;5202;49.138;10.090;2023-04-03T05:08:55;2.40;99.90
10314;DHT22;5202;49.138;10.090;2023-04-03T05:11:23;2.40;99.90
10314;DHT22;5202;49.138;10.090;2023-04-03T05:13:52;2.40;99.90
10314;DHT22;5202;49.138;10.090;2023-04-03T05:16:23;2.30;99.90
10314;DHT22;5202;49.138;10.090;2023-04-03T05:18:52;2.30;99.90
10314;DHT22;5202;49.138;10.090;2023-04-03T05:21:23;2.30;99.90
10314;DHT22;5202;49.138;10.090;2023-04-03T05:23:53;2.40;99.90
10314;DHT22;5202;49.138;10.090;2023-04-03T05:26:22;2.40;99.90
10314;DHT22;5202;49.138;10.090;2023-04-03T05:28:50;2.40;99.90
10314;DHT22;5202;49.138;10.090;2023-04-03T05:31:20;2.40;99.90
10314;DHT22;5202;49.138;10.090;2023-04-03T05:33:49;2.40;99.90
10314;DHT22;5202;49.138;10.090;2023-04-03T05:36:17;2.40;99.90
10314;DHT22;5202;49.138;10.090;2023-04-03T05:38:52;2.40;99.90
10314;DHT22;5202;49.138;10.090;2023-04-03T05:41:24;2.40;99.90
10314;DHT22;5202;49.138;10.090;2023-04-03T05:43:52;2.50;99.90
10314;DHT22;5202;49.138;10.090;2023-04-03T05:46:23;2.60;99.90
10314;DHT22;5202;49.138;10.090;2023-04-03T05:48:55;2.60;99.90
10314;DHT22;5202;49.138;10.090;2023-04-03T05:51:30;2.70;99.90
10314;DHT22;5202;49.138;10.090;2023-04-03T05:54:13;2.70;99.90
10314;DHT22;5202;49.138;10.090;2023-04-03T05:56:44;2.80;99.90
10314;DHT22;5202;49.138;10.090;2023-04-03T05:59:13;2.80;99.90
10314;DHT22;5202;49.138;10.090;2023-04-03T06:01:41;2.80;99.90
10314;DHT22;5202;49.138;10.090;2023-04-03T06:04:10;2.80;99.90
10314;DHT22;5202;49.138;10.090;2023-04-03T06:06:46;2.80;99.90
10314;DHT22;5202;49.138;10.090;2023-04-03T06:09:17;2.80;99.90
10314;DHT22;5202;49.138;10.090;2023-04-03T06:11:45;2.80;99.90
10314;DHT22;5202;49.138;10.090;2023-04-03T06:14:14;2.90;99.90
10314;DHT22;5202;49.138;10.090;2023-04-03T06:16:42;2.90;99.90
10314;DHT22;5202;49.138;10.090;2023-04-03T06:19:12;3.00;99.90
10314;DHT22;5202;49.138;10.090;2023-04-03T06:21:46;3.10;99.90
10314;DHT22;5202;49.138;10.090;2023-04-03T06:24:17;3.20;99.90
10314;DHT22;5202;49.138;10.090;2023-04-03T06:26:46;3.30;99.90
10314;DHT22;5202;49.138;10.090;2023-04-03T06:29:15;3.30;99.90
10314;DHT22;5202;49.138;10.090;2023-04-03T06:31:44;3.40;99.90
10314;DHT22;5202;49.138;10.090;2023-04-03T06:34:12;3.40;99.90
10314;DHT22;5202;49.138;10.090;2023-04-03T06:36:40;3.50;99.90
10314;DHT22;5202;49.138;10.090;2023-04-03T06:39:12;3.40;99.90
10314;DHT22;5202;49.138;10.090;2023-04-03T06:41:42;3.40;99.90
10314;DHT22;5202;49.138;10.090;2023-04-03T06:44:11;3.40;99.90
10314;DHT22;5202;49.138;10.090;2023-04-03T06:46:43;3.50;99.90
10314;DHT22;5202;49.138;10.090;2023-04-03T06:49:13;3.70;99.90
10314;DHT22;5202;49.138;10.090;2023-04-03T06:51:41;3.80;99.90
10314;DHT22;5202;49.138;10.090;2023-04-03T06:54:10;3.70;99.90
10314;DHT22;5202;49.138;10.090;2023-04-03T06:56:38;3.60;99.90
10314;DHT22;5202;49.138;10.090;2023-04-03T06:59:09;3.60;99.90
10314;DHT22;5202;49.138;10.090;2023-04-03T07:01:38;3.70;99.90
10314;DHT22;5202;49.138;10.090;2023-04-03T07:04:07;3.80;99.90
10314;DHT22;5202;49.138;10.090;2023-04-03T07:06:36;3.80;99.90
10314;DHT22;5202;49.138;10.090;2023-04-03T07:09:04;3.80;99.90
10314;DHT22;5202;49.138;10.090;2023-04-03T07:11:39;3.80;99.90
10314;DHT22;5202;49.138;10.090;2023-04-03T07:14:09;3.80;99.90
10314;DHT22;5202;49.138;10.090;2023-04-03T07:16:37;3.80;99.90
10314;DHT22;5202;49.138;10.090;2023-04-03T07:19:08;3.90;99.90
10314;DHT22;5202;49.138;10.090;2023-04-03T07:21:36;3.90;99.90
10314;DHT22;5202;49.138;10.090;2023-04-03T07:24:05;3.90;99.90
10314;DHT22;5202;49.138;10.090;2023-04-03T07:26:39;3.90;99.90
10314;DHT22;5202;49.138;10.090;2023-04-03T07:29:09;3.90;99.90
10314;DHT22;5202;49.138;10.090;2023-04-03T07:31:38;4.00;99.90
10314;DHT22;5202;49.138;10.090;2023-04-03T07:34:08;4.00;99.90
10314;DHT22;5202;49.138;10.090;2023-04-03T07:36:37;4.10;99.90
10314;DHT22;5202;49.138;10.090;2023-04-03T07:39:05;4.30;99.90
10314;DHT22;5202;49.138;10.090;2023-04-03T07:41:34;4.30;99.90
10314;DHT22;5202;49.138;10.090;2023-04-03T07:44:03;4.40;99.90
10314;DHT22;5202;49.138;10.090;2023-04-03T07:46:33;4.30;99.90
10314;DHT22;5202;49.138;10.090;2023-04-03T07:49:02;4.40;99.90
10314;DHT22;5202;49.138;10.090;2023-04-03T07:51:30;4.40;99.90
10314;DHT22;5202;49.138;10.090;2023-04-03T07:53:58;4.40;99.90
10314;DHT22;5202;49.138;10.090;2023-04-03T07:56:26;4.40;99.90
10314;DHT22;5202;49.138;10.090;2023-04-03T07:58:55;4.50;99.90
10314;DHT22;5202;49.138;10.090;2023-04-03T08:01:23;4.70;99.90
10314;DHT22;5202;49.138;10.090;2023-04-03T08:03:53;4.90;99.90
10314;DHT22;5202;49.138;10.090;2023-04-03T08:06:22;5.00;99.90
10314;DHT22;5202;49.138;10.090;2023-04-03T08:09:10;5.00;99.90
10314;DHT22;5202;49.138;10.090;2023-04-03T08:11:38;5.00;99.70
10314;DHT22;5202;49.138;10.090;2023-04-03T08:14:07;5.00;99.90
10314;DHT22;5202;49.138;10.090;2023-04-03T08:16:37;5.00;99.30
10314;DHT22;5202;49.138;10.090;2023-04-03T08:19:07;5.10;99.50
10314;DHT22;5202;49.138;10.090;2023-04-03T08:21:48;5.10;99.00
10314;DHT22;5202;49.138;10.090;2023-04-03T08:24:17;5.10;99.50
10314;DHT22;5202;49.138;10.090;2023-04-03T08:26:48;5.10;98.80
10314;DHT22;5202;49.138;10.090;2023-04-03T08:29:17;5.10;99.10
10314;DHT22;5202;49.138;10.090;2023-04-03T08:31:45;5.00;98.90
10314;DHT22;5202;49.138;10.090;2023-04-03T08:34:14;5.10;99.10
10314;DHT22;5202;49.138;10.090;2023-04-03T08:36:43;5.10;98.60
10314;DHT22;5202;49.138;10.090;2023-04-03T08:39:12;5.10;98.20
10314;DHT22;5202;49.138;10.090;2023-04-03T08:41:41;5.10;99.20
10314;DHT22;5202;49.138;10.090;2023-04-03T08:44:15;5.20;99.50
10314;DHT22;5202;49.138;10.090;2023-04-03T08:46:58;5.30;99.30
10314;DHT22;5202;49.138;10.090;2023-04-03T08:49:34;5.30;98.70
10314;DHT22;5202;49.138;10.090;2023-04-03T08:52:11;5.30;98.40
10314;DHT22;5202;49.138;10.090;2023-04-03T08:54:49;5.40;98.60
10314;DHT22;5202;49.138;10.090;2023-04-03T08:57:23;5.50;97.90
10314;DHT22;5202;49.138;10.090;2023-04-03T08:59:55;5.60;98.40
10314;DHT22;5202;49.138;10.090;2023-04-03T09:02:29;5.80;98.00
10314;DHT22;5202;49.138;10.090;2023-04-03T09:05:09;5.80;96.90
10314;DHT22;5202;49.138;10.090;2023-04-03T09:07:45;5.80;96.90
10314;DHT22;5202;49.138;10.090;2023-04-03T09:10:19;5.80;97.50
10314;DHT22;5202;49.138;10.090;2023-04-03T09:12:57;5.90;97.50
10314;DHT22;5202;49.138;10.090;2023-04-03T09:15:28;5.90;97.00
10314;DHT22;5202;49.138;10.090;2023-04-03T09:18:11;6.00;97.30
10314;DHT22;5202;49.138;10.090;2023-04-03T09:20:48;6.00;96.70
10314;DHT22;5202;49.138;10.090;2023-04-03T09:23:26;5.90;96.40
10314;DHT22;5202;49.138;10.090;2023-04-03T09:26:01;6.00;96.90
10314;DHT22;5202;49.138;10.090;2023-04-03T09:28:34;5.90;96.30
10314;DHT22;5202;49.138;10.090;2023-04-03T09:31:22;5.90;96.10
10314;DHT22;5202;49.138;10.090;2023-04-03T09:33:54;5.90;96.00
10314;DHT22;5202;49.138;10.090;2023-04-03T09:36:40;5.90;95.60
10314;DHT22;5202;49.138;10.090;2023-04-03T09:39:12;5.80;96.10
10314;DHT22;5202;49.138;10.090;2023-04-03T09:41:55;5.80;95.80
10314;DHT22;5202;49.138;10.090;2023-04-03T09:44:27;5.90;95.00
10314;DHT22;5202;49.138;10.090;2023-04-03T09:46:57;6.00;94.60
10314;DHT22;5202;49.138;10.090;2023-04-03T09:49:54;5.90;95.20
10314;DHT22;5202;49.138;10.090;2023-04-03T09:52:40;6.00;96.10
10314;DHT22;5202;49.138;10.090;2023-04-03T09:55:14;6.10;95.60
10314;DHT22;5202;49.138;10.090;2023-04-03T09:57:44;6.20;95.30
10314;DHT22;5202;49.138;10.090;2023-04-03T10:00:20;6.30;95.80
10314;DHT22;5202;49.138;10.090;2023-04-03T10:03:22;6.40;96.20
10314;DHT22;5202;49.138;10.090;2023-04-03T10:05:53;6.50;95.00
10314;DHT22;5202;49.138;10.090;2023-04-03T10:08:28;6.50;94.30
10314;DHT22;5202;49.138;10.090;2023-04-03T10:11:10;6.60;94.50
10314;DHT22;5202;49.138;10.090;2023-04-03T10:13:54;6.70;94.00
10314;DHT22;5202;49.138;10.090;2023-04-03T10:16:45;6.70;94.10
10314;DHT22;5202;49.138;10.090;2023-04-03T10:19:31;6.70;93.20
10314;DHT22;5202;49.138;10.090;2023-04-03T10:22:06;6.70;93.20
10314;DHT22;5202;49.138;10.090;2023-04-03T10:24:50;6.80;93.00
10314;DHT22;5202;49.138;10.090;2023-04-03T10:27:30;6.90;91.80
10314;DHT22;5202;49.138;10.090;2023-04-03T10:30:19;6.80;91.60
10314;DHT22;5202;49.138;10.090;2023-04-03T10:32:55;6.90;92.20
10314;DHT22;5202;49.138;10.090;2023-04-03T10:35:39;6.90;91.40
10314;DHT22;5202;49.138;10.090;2023-04-03T10:38:18;6.80;89.70
10314;DHT22;5202;49.138;10.090;2023-04-03T10:40:59;6.80;90.00
10314;DHT22;5202;49.138;10.090;2023-04-03T10:43:36;6.70;90.50
10314;DHT22;5202;49.138;10.090;2023-04-03T10:46:12;6.80;90.30
10314;DHT22;5202;49.138;10.090;2023-04-03T10:48:56;6.90;91.40
10314;DHT22;5202;49.138;10.090;2023-04-03T10:51:38;7.20;91.40
10314;DHT22;5202;49.138;10.090;2023-04-03T10:54:12;7.30;88.70
10314;DHT22;5202;49.138;10.090;2023-04-03T10:56:47;7.20;87.80
10314;DHT22;5202;49.138;10.090;2023-04-03T10:59:32;7.10;86.30
10314;DHT22;5202;49.138;10.090;2023-04-03T11:02:07;7.00;87.50
10314;DHT22;5202;49.138;10.090;2023-04-03T11:04:43;7.10;88.50
10314;DHT22;5202;49.138;10.090;2023-04-03T11:07:18;7.20;87.20
10314;DHT22;5202;49.138;10.090;2023-04-03T11:09:52;7.40;86.10
10314;DHT22;5202;49.138;10.090;2023-04-03T11:12:26;7.50;86.40
10314;DHT22;5202;49.138;10.090;2023-04-03T11:14:58;7.80;89.50
10314;DHT22;5202;49.138;10.090;2023-04-03T11:17:31;8.00;89.50
10314;DHT22;5202;49.138;10.090;2023-04-03T11:20:08;8.10;87.00
10314;DHT22;5202;49.138;10.090;2023-04-03T11:22:43;8.30;87.90
10314;DHT22;5202;49.138;10.090;2023-04-03T11:25:19;8.40;86.90
10314;DHT22;5202;49.138;10.090;2023-04-03T11:27:56;8.30;83.70
10314;DHT22;5202;49.138;10.090;2023-04-03T11:30:30;8.30;84.10
10314;DHT22;5202;49.138;10.090;2023-04-03T11:33:28;8.30;83.30
10314;DHT22;5202;49.138;10.090;2023-04-03T11:36:08;8.30;83.70
10314;DHT22;5202;49.138;10.090;2023-04-03T11:39:02;8.40;84.50
10314;DHT22;5202;49.138;10.090;2023-04-03T11:41:37;8.30;83.70
10314;DHT22;5202;49.138;10.090;2023-04-03T11:44:34;8.30;84.20
10314;DHT22;5202;49.138;10.090;2023-04-03T11:47:05;8.50;84.60
10314;DHT22;5202;49.138;10.090;2023-04-03T11:49:52;8.70;84.30
10314;DHT22;5202;49.138;10.090;2023-04-03T11:52:56;8.90;84.00
10314;DHT22;5202;49.138;10.090;2023-04-03T11:59:22;8.70;81.70
10314;DHT22;5202;49.138;10.090;2023-04-03T12:02:34;8.60;81.60
10314;DHT22;5202;49.138;10.090;2023-04-03T12:05:25;8.50;81.00
10314;DHT22;5202;49.138;10.090;2023-04-03T12:08:22;8.50;79.10
10314;DHT22;5202;49.138;10.090;2023-04-03T12:11:15;8.30;79.40
10314;DHT22;5202;49.138;10.090;2023-04-03T12:14:03;8.40;80.60
10314;DHT22;5202;49.138;10.090;2023-04-03T12:16:42;8.70;83.10
10314;DHT22;5202;49.138;10.090;2023-04-03T12:19:34;9.00;83.40
10314;DHT22;5202;49.138;10.090;2023-04-03T12:22:14;8.70;76.50
10314;DHT22;5202;49.138;10.090;2023-04-03T12:24:45;8.50;78.20
10314;DHT22;5202;49.138;10.090;2023-04-03T12:27:33;8.40;79.60
10314;DHT22;5202;49.138;10.090;2023-04-03T12:30:13;8.60;78.60
10314;DHT22;5202;49.138;10.090;2023-04-03T12:33:09;8.70;78.20
10314;DHT22;5202;49.138;10.090;2023-04-03T12:35:56;8.80;77.20
10314;DHT22;5202;49.138;10.090;2023-04-03T12:39:01;8.60;78.80
10314;DHT22;5202;49.138;10.090;2023-04-03T12:41:41;8.50;78.10
10314;DHT22;5202;49.138;10.090;2023-04-03T12:44:30;8.60;77.00
10314;DHT22;5202;49.138;10.090;2023-04-03T12:47:25;8.50;77.30
10314;DHT22;5202;49.138;10.090;2023-04-03T12:50:02;8.50;77.40
10314;DHT22;5202;49.138;10.090;2023-04-03T12:52:35;8.80;78.40
10314;DHT22;5202;49.138;10.090;2023-04-03T12:55:13;8.90;76.00
10314;DHT22;5202;49.138;10.090;2023-04-03T12:57:43;9.00;74.00
10314;DHT22;5202;49.138;10.090;2023-04-03T13:00:27;8.90;73.40
10314;DHT22;5202;49.138;10.090;2023-04-03T13:02:57;8.90;74.40
10314;DHT22;5202;49.138;10.090;2023-04-03T13:05:27;8.90;74.80
10314;DHT22;5202;49.138;10.090;2023-04-03T13:07:59;8.80;73.90
10314;DHT22;5202;49.138;10.090;2023-04-03T13:10:30;8.70;74.10
10314;DHT22;5202;49.138;10.090;2023-04-03T13:13:08;8.70;74.30
10314;DHT22;5202;49.138;10.090;2023-04-03T13:15:42;8.70;74.60
10314;DHT22;5202;49.138;10.090;2023-04-03T13:18:27;8.70;75.10
10314;DHT22;5202;49.138;10.090;2023-04-03T13:21:02;8.90;76.00
10314;DHT22;5202;49.138;10.090;2023-04-03T13:23:32;9.30;77.60
10314;DHT22;5202;49.138;10.090;2023-04-03T13:26:04;9.60;71.80
10314;DHT22;5202;49.138;10.090;2023-04-03T13:28:33;9.80;74.50
10314;DHT22;5202;49.138;10.090;2023-04-03T13:31:08;9.70;72.80
10314;DHT22;5202;49.138;10.090;2023-04-03T13:33:54;9.70;71.40
10314;DHT22;5202;49.138;10.090;2023-04-03T13:36:29;9.40;71.50
10314;DHT22;5202;49.138;10.090;2023-04-03T13:39:02;9.40;73.20
10314;DHT22;5202;49.138;10.090;2023-04-03T13:41:49;9.90;73.60
10314;DHT22;5202;49.138;10.090;2023-04-03T13:44:29;10.40;70.40
10314;DHT22;5202;49.138;10.090;2023-04-03T13:47:13;10.50;67.20
10314;DHT22;5202;49.138;10.090;2023-04-03T13:49:45;10.50;67.60
10314;DHT22;5202;49.138;10.090;2023-04-03T13:52:30;10.30;67.90
10314;DHT22;5202;49.138;10.090;2023-04-03T13:55:16;10.10;67.40
10314;DHT22;5202;49.138;10.090;2023-04-03T13:57:55;9.90;65.20
10314;DHT22;5202;49.138;10.090;2023-04-03T14:00:35;9.90;67.90
10314;DHT22;5202;49.138;10.090;2023-04-03T14:03:13;10.20;65.60
10314;DHT22;5202;49.138;10.090;2023-04-03T14:05:41;10.60;66.80
10314;DHT22;5202;49.138;10.090;2023-04-03T14:08:36;10.20;65.80
10314;DHT22;5202;49.138;10.090;2023-04-03T14:11:13;9.90;67.30
10314;DHT22;5202;49.138;10.090;2023-04-03T14:13:43;9.80;65.60
10314;DHT22;5202;49.138;10.090;2023-04-03T14:16:14;10.00;66.60
10314;DHT22;5202;49.138;10.090;2023-04-03T14:18:44;10.30;66.20
10314;DHT22;5202;49.138;10.090;2023-04-03T14:21:13;10.90;66.40
10314;DHT22;5202;49.138;10.090;2023-04-03T14:23:45;11.40;64.80
10314;DHT22;5202;49.138;10.090;2023-04-03T14:26:15;11.90;65.10
10314;DHT22;5202;49.138;10.090;2023-04-03T14:28:46;11.60;63.10
10314;DHT22;5202;49.138;10.090;2023-04-03T14:31:16;10.90;61.80
10314;DHT22;5202;49.138;10.090;2023-04-03T14:33:45;10.30;64.10
10314;DHT22;5202;49.138;10.090;2023-04-03T14:36:18;9.90;64.50
10314;DHT22;5202;49.138;10.090;2023-04-03T14:38:50;9.70;65.30
10314;DHT22;5202;49.138;10.090;2023-04-03T14:41:21;10.00;64.80
10314;DHT22;5202;49.138;10.090;2023-04-03T14:43:51;10.80;63.90
10314;DHT22;5202;49.138;10.090;2023-04-03T14:46:22;11.30;60.20
10314;DHT22;5202;49.138;10.090;2023-04-03T14:49:12;11.50;63.10
10314;DHT22;5202;49.138;10.090;2023-04-03T14:51:42;12.30;62.70
10314;DHT22;5202;49.138;10.090;2023-04-03T14:54:16;12.50;62.10
10314;DHT22;5202;49.138;10.090;2023-04-03T14:56:48;12.10;58.80
10314;DHT22;5202;49.138;10.090;2023-04-03T14:59:16;11.80;58.60
10314;DHT22;5202;49.138;10.090;2023-04-03T15:01:46;11.50;59.20
10314;DHT22;5202;49.138;10.090;2023-04-03T15:04:17;11.10;59.70
10314;DHT22;5202;49.138;10.090;2023-04-03T15:06:48;11.20;59.00
10314;DHT22;5202;49.138;10.090;2023-04-03T15:09:21;11.90;60.50
10314;DHT22;5202;49.138;10.090;2023-04-03T15:11:53;12.60;58.60
10314;DHT22;5202;49.138;10.090;2023-04-03T15:14:22;13.10;56.70
10314;DHT22;5202;49.138;10.090;2023-04-03T15:17:03;12.70;56.50
10314;DHT22;5202;49.138;10.090;2023-04-03T15:19:36;12.30;58.00
10314;DHT22;5202;49.138;10.090;2023-04-03T15:22:05;12.10;57.20
10314;DHT22;5202;49.138;10.090;2023-04-03T15:24:35;11.60;56.60
10314;DHT22;5202;49.138;10.090;2023-04-03T15:27:04;11.50;59.30
10314;DHT22;5202;49.138;10.090;2023-04-03T15:29:32;11.70;57.90
10314;DHT22;5202;49.138;10.090;2023-04-03T15:32:00;12.10;59.00
10314;DHT22;5202;49.138;10.090;2023-04-03T15:34:29;12.40;58.90
10314;DHT22;5202;49.138;10.090;2023-04-03T15:36:58;12.70;58.50
10314;DHT22;5202;49.138;10.090;2023-04-03T15:39:26;12.70;56.70
10314;DHT22;5202;49.138;10.090;2023-04-03T15:41:56;12.60;55.00
10314;DHT22;5202;49.138;10.090;2023-04-03T15:44:32;12.50;56.60
10314;DHT22;5202;49.138;10.090;2023-04-03T15:47:02;13.00;57.50
10314;DHT22;5202;49.138;10.090;2023-04-03T15:49:32;13.80;55.90
10314;DHT22;5202;49.138;10.090;2023-04-03T15:52:01;13.90;52.60
10314;DHT22;5202;49.138;10.090;2023-04-03T15:54:29;13.40;49.50
10314;DHT22;5202;49.138;10.090;2023-04-03T15:56:59;13.30;52.40
10314;DHT22;5202;49.138;10.090;2023-04-03T15:59:28;13.60;54.30
10314;DHT22;5202;49.138;10.090;2023-04-03T16:02:04;13.90;55.70
10314;DHT22;5202;49.138;10.090;2023-04-03T16:04:34;14.00;53.80
10314;DHT22;5202;49.138;10.090;2023-04-03T16:07:14;13.60;52.30
10314;DHT22;5202;49.138;10.090;2023-04-03T16:09:43;13.10;53.00
10314;DHT22;5202;49.138;10.090;2023-04-03T16:12:12;12.60;52.80
10314;DHT22;5202;49.138;10.090;2023-04-03T16:14:41;12.20;54.90
10314;DHT22;5202;49.138;10.090;2023-04-03T16:17:09;12.00;55.10
10314;DHT22;5202;49.138;10.090;2023-04-03T16:19:37;11.80;54.40
10314;DHT22;5202;49.138;10.090;2023-04-03T16:22:06;11.60;55.90
10314;DHT22;5202;49.138;10.090;2023-04-03T16:24:37;11.40;55.40
10314;DHT22;5202;49.138;10.090;2023-04-03T16:27:05;11.10;55.20
10314;DHT22;5202;49.138;10.090;2023-04-03T16:29:35;11.00;54.90